Time;durP1;ratioP1;P1;durP2;ratioP2;P2;SDS_P1;SDS_P2;PMS_P1;PMS_P2;Temp;Humidity;BMP_temperature;BMP_pressure;BME280_temperature;BME280_humidity;BME280_pressure;Samples;Min_cycle;Max_cycle;Signal;HPM_P1;HPM_P2
2022/07/14 00:00:25;;;;;;;0.40;0.40;;;;;;;21.90;56.84;95820.16;4350771;32;20259;-62
2022/07/14 00:02:51;;;;;;;0.87;0.80;;;;;;;21.89;54.51;95826.69;4365332;32;20210;-62
2022/07/14 00:05:16;;;;;;;0.20;0.20;;;;;;;21.88;55.00;95818.94;4343461;32;20205;-62
2022/07/14 00:07:46;;;;;;;0.20;0.20;;;;;;;21.92;56.92;95817.88;4340143;32;20219;-62
2022/07/14 00:10:12;;;;;;;0.77;0.77;;;;;;;21.92;56.34;95820.59;4346052;32;20199;-62
2022/07/14 00:12:41;;;;;;;1.90;1.13;;;;;;;21.90;55.46;95817.47;4327081;32;20197;-63
2022/07/14 00:15:08;;;;;;;0.60;0.60;;;;;;;21.88;56.78;95817.03;4342246;32;20250;-62
2022/07/14 00:17:34;;;;;;;0.87;0.60;;;;;;;21.86;57.37;95813.88;4322253;32;20193;-65
2022/07/14 00:20:01;;;;;;;0.30;0.30;;;;;;;21.83;56.52;95814.59;4303413;32;20263;-62
2022/07/14 00:22:30;;;;;;;1.00;1.00;;;;;;;21.86;56.37;95808.47;4337132;32;20244;-62
2022/07/14 00:24:57;;;;;;;0.43;0.43;;;;;;;21.83;57.45;95801.09;4349644;32;20184;-62
2022/07/14 00:27:24;;;;;;;0.50;0.50;;;;;;;21.79;55.61;95794.84;4345179;32;20233;-62
2022/07/14 00:29:51;;;;;;;0.20;0.20;;;;;;;21.85;57.98;95798.03;4360263;32;20194;-62
2022/07/14 00:32:17;;;;;;;0.10;0.10;;;;;;;21.79;55.11;95792.16;4332705;32;20185;-62
2022/07/14 00:34:43;;;;;;;0.77;0.73;;;;;;;21.78;55.90;95787.88;4352225;32;20181;-62
2022/07/14 00:37:09;;;;;;;0.57;0.57;;;;;;;21.78;56.15;95787.88;4359793;32;20198;-62
2022/07/14 00:39:56;;;;;;;0.60;0.30;;;;;;;21.80;57.09;95782.91;4303298;32;20185;-63
2022/07/14 00:42:32;;;;;;;0.40;0.40;;;;;;;21.79;56.09;95783.25;4341633;32;20275;-62
2022/07/14 00:45:00;;;;;;;0.60;0.60;;;;;;;21.80;55.88;95784.81;4354897;32;20304;-62
2022/07/14 00:47:25;;;;;;;0.73;0.73;;;;;;;21.74;58.49;95778.91;4329086;32;20207;-62
2022/07/14 00:49:53;;;;;;;0.50;0.50;;;;;;;21.75;57.18;95777.78;4351287;32;20266;-62
2022/07/14 00:52:22;;;;;;;0.40;0.40;;;;;;;21.79;55.49;95778.63;4317207;32;20185;-62
2022/07/14 00:54:49;;;;;;;1.03;1.03;;;;;;;21.80;55.42;95776.72;4337248;32;20212;-62
2022/07/14 00:57:18;;;;;;;0.10;0.10;;;;;;;21.77;54.84;95789.00;4314941;32;20245;-62
2022/07/14 00:59:49;;;;;;;0.67;0.67;;;;;;;21.76;54.43;95794.75;4319582;32;20185;-62
2022/07/14 01:02:22;;;;;;;0.30;0.30;;;;;;;21.66;55.69;95790.69;4324412;32;20189;-62
2022/07/14 01:04:49;;;;;;;0.30;0.30;;;;;;;21.66;55.59;95779.88;4330751;32;20229;-62
2022/07/14 01:07:17;;;;;;;0.50;0.50;;;;;;;21.72;56.35;95781.19;4334215;32;20189;-62
2022/07/14 01:09:44;;;;;;;0.20;0.20;;;;;;;21.67;56.55;95791.47;4361011;32;20181;-61
2022/07/14 01:12:12;;;;;;;0.20;0.20;;;;;;;21.59;55.79;95777.81;4325906;32;20269;-62
2022/07/14 01:14:39;;;;;;;0.27;0.27;;;;;;;21.62;57.22;95787.13;4343917;32;20239;-62
2022/07/14 01:17:07;;;;;;;0.20;0.20;;;;;;;21.52;56.34;95779.56;4323602;32;20208;-65
2022/07/14 01:19:34;;;;;;;0.47;0.47;;;;;;;21.48;56.43;95781.41;4327344;32;20204;-62
2022/07/14 01:22:01;;;;;;;0.10;0.10;;;;;;;21.57;58.79;95798.22;4348929;32;20227;-62
2022/07/14 01:24:28;;;;;;;0.30;0.30;;;;;;;21.59;58.69;95790.53;4346228;32;20310;-61
2022/07/14 01:26:54;;;;;;;0.63;0.47;;;;;;;21.58;57.53;95802.47;4337909;32;20190;-61
2022/07/14 01:29:23;;;;;;;0.17;0.17;;;;;;;21.54;58.86;95809.72;4350008;32;20189;-62
2022/07/14 01:31:50;;;;;;;0.57;0.57;;;;;;;21.56;59.08;95812.84;4327530;32;20269;-62
2022/07/14 01:34:17;;;;;;;0.67;0.67;;;;;;;21.53;60.46;95810.84;4325081;32;20205;-62
2022/07/14 01:36:44;;;;;;;1.33;1.23;;;;;;;21.55;58.33;95803.97;4326248;32;20197;-62
2022/07/14 01:39:10;;;;;;;0.60;0.60;;;;;;;21.52;60.56;95801.16;4255534;32;20205;-62
2022/07/14 01:41:37;;;;;;;0.50;0.50;;;;;;;21.51;60.64;95788.81;4313080;32;20189;-62
2022/07/14 01:44:03;;;;;;;0.67;0.67;;;;;;;21.51;59.19;95780.69;4322158;32;20268;-62
2022/07/14 01:46:30;;;;;;;1.87;0.57;;;;;;;21.51;60.29;95778.00;4353746;32;20203;-62
2022/07/14 01:48:56;;;;;;;0.67;0.67;;;;;;;21.52;59.76;95768.78;4345220;32;20267;-62
2022/07/14 01:51:28;;;;;;;0.67;0.60;;;;;;;21.51;59.64;95778.00;4353544;32;20189;-62
2022/07/14 01:53:55;;;;;;;0.87;0.87;;;;;;;21.51;59.97;95776.09;4329205;32;20193;-62
2022/07/14 01:56:22;;;;;;;0.30;0.30;;;;;;;21.52;59.82;95768.78;4330369;32;20196;-62
2022/07/14 01:58:48;;;;;;;0.73;0.73;;;;;;;21.51;59.49;95762.59;4349199;32;20213;-62
2022/07/14 02:04:02;;;;;;;0.40;0.40;;;;;;;21.45;59.65;95749.69;4372087;32;20221;-62
2022/07/14 02:06:29;;;;;;;0.80;0.40;;;;;;;21.43;60.24;95746.56;4330729;32;20275;-62
2022/07/14 02:08:59;;;;;;;0.50;0.50;;;;;;;21.45;59.61;95741.59;4369418;32;20257;-62
2022/07/14 02:14:10;;;;;;;1.33;0.67;;;;;;;21.40;60.98;95750.00;4346538;32;20219;-62
2022/07/14 02:16:40;;;;;;;0.10;0.10;;;;;;;21.35;61.33;95752.97;4380402;32;20185;-63
2022/07/14 02:19:07;;;;;;;0.53;0.37;;;;;;;21.38;59.95;95768.47;4375423;32;20196;-63
2022/07/14 02:21:34;;;;;;;0.20;0.20;;;;;;;21.41;59.78;95762.34;4367403;32;20184;-62
2022/07/14 02:24:02;;;;;;;0.40;0.40;;;;;;;21.38;60.87;95766.53;4370301;32;20268;-62
2022/07/14 02:26:28;;;;;;;0.40;0.40;;;;;;;21.39;60.47;95770.03;4351393;32;20193;-62
2022/07/14 02:28:54;;;;;;;0.60;0.57;;;;;;;21.39;59.91;95775.44;4370515;32;20195;-62
2022/07/14 02:31:20;;;;;;;0.20;0.20;;;;;;;21.39;59.87;95770.03;4374925;32;20205;-62
2022/07/14 02:33:47;;;;;;;0.20;0.20;;;;;;;21.31;60.12;95771.00;4377384;32;20210;-61
2022/07/14 02:36:20;;;;;;;0.20;0.20;;;;;;;21.32;61.72;95772.56;4346880;32;20207;-62
2022/07/14 02:38:47;;;;;;;0.13;0.13;;;;;;;21.30;60.82;95770.19;4338937;32;20200;-62
2022/07/14 02:41:16;;;;;;;10.30;0.97;;;;;;;21.29;61.43;95762.44;4376732;32;20204;-63
2022/07/14 02:43:44;;;;;;;0.30;0.30;;;;;;;21.26;61.90;95761.22;4365671;32;20188;-62
2022/07/14 02:46:11;;;;;;;0.40;0.40;;;;;;;21.28;61.47;95764.38;4330784;32;20193;-63
2022/07/14 02:48:38;;;;;;;0.50;0.50;;;;;;;21.18;60.27;95765.66;4354977;32;20180;-63
2022/07/14 02:51:09;;;;;;;1.13;0.77;;;;;;;21.20;61.36;95763.41;4375033;32;20238;-62
2022/07/14 02:53:39;;;;;;;0.50;0.50;;;;;;;21.18;61.26;95773.78;4348192;32;20185;-62
2022/07/14 02:56:07;;;;;;;0.70;0.70;;;;;;;21.16;61.60;95777.94;4372174;32;20181;-62
2022/07/14 02:58:36;;;;;;;0.30;0.30;;;;;;;21.14;61.54;95775.59;4375027;32;20184;-62
2022/07/14 03:01:10;;;;;;;0.20;0.20;;;;;;;21.15;61.02;95782.56;4349351;32;20176;-62
2022/07/14 03:03:36;;;;;;;0.47;0.47;;;;;;;21.19;61.27;95778.03;4367659;32;20243;-65
2022/07/14 03:06:10;;;;;;;0.63;0.63;;;;;;;21.07;62.37;95783.50;4357655;32;20200;-62
2022/07/14 03:08:38;;;;;;;0.27;0.27;;;;;;;21.02;61.97;95780.28;4340984;32;20203;-62
2022/07/14 03:11:11;;;;;;;0.27;0.27;;;;;;;21.06;61.61;95781.94;4353656;32;20188;-62
2022/07/14 03:13:38;;;;;;;0.20;0.20;;;;;;;21.06;61.44;95771.16;4372315;32;20196;-62
2022/07/14 03:16:29;;;;;;;0.40;0.40;;;;;;;21.03;62.54;95774.53;4364114;32;20238;-62
2022/07/14 03:18:55;;;;;;;1.30;1.20;;;;;;;21.02;62.67;95762.19;4359809;32;20189;-62
2022/07/14 03:21:22;;;;;;;0.40;0.40;;;;;;;21.09;62.08;95767.75;4367788;32;20230;-62
2022/07/14 03:23:49;;;;;;;0.60;0.60;;;;;;;21.13;62.46;95771.31;4372498;32;20327;-62
2022/07/14 03:26:15;;;;;;;0.60;0.60;;;;;;;21.11;62.41;95770.87;4334888;32;20220;-63
2022/07/14 03:28:43;;;;;;;0.40;0.40;;;;;;;21.04;61.18;95778.81;4373293;32;20230;-62
2022/07/14 03:31:09;;;;;;;0.20;0.20;;;;;;;21.06;62.85;95781.16;4341264;32;20231;-62
2022/07/14 03:33:36;;;;;;;0.40;0.40;;;;;;;21.05;62.46;95783.06;4371004;32;20242;-63
2022/07/14 03:36:06;;;;;;;1.07;0.40;;;;;;;21.04;62.60;95786.91;4351128;32;20240;-62
2022/07/14 03:38:31;;;;;;;0.37;0.37;;;;;;;21.01;62.23;95787.59;4354369;32;20216;-62
2022/07/14 03:41:02;;;;;;;0.30;0.30;;;;;;;21.05;62.40;95790.38;4341198;32;20286;-62
2022/07/14 03:43:31;;;;;;;0.00;0.00;;;;;;;20.91;60.77;95782.72;4342299;32;20244;-62
2022/07/14 03:46:00;;;;;;;0.50;0.50;;;;;;;20.93;62.70;95780.47;4355807;32;20181;-62
2022/07/14 03:48:26;;;;;;;0.40;0.40;;;;;;;20.97;62.25;95775.94;4332288;32;20172;-62
2022/07/14 03:50:52;;;;;;;0.10;0.10;;;;;;;20.92;60.72;95766.19;4308728;32;20238;-62
2022/07/14 03:53:20;;;;;;;0.17;0.17;;;;;;;20.95;60.88;95772.81;4323452;32;20250;-62
2022/07/14 03:55:45;;;;;;;0.53;0.53;;;;;;;20.93;61.73;95770.47;4340959;32;20264;-62
2022/07/14 03:58:11;;;;;;;0.50;0.50;;;;;;;21.03;61.03;95769.16;4367883;32;20196;-62
2022/07/14 04:00:39;;;;;;;0.30;0.30;;;;;;;20.97;61.64;95761.69;4366218;32;20196;-63
2022/07/14 04:03:07;;;;;;;0.60;0.43;;;;;;;20.96;61.18;95760.12;4361196;32;20252;-62
2022/07/14 04:05:35;;;;;;;2.13;0.77;;;;;;;21.03;60.22;95758.34;4366308;32;20302;-62
2022/07/14 04:08:02;;;;;;;0.10;0.10;;;;;;;21.02;60.01;95762.19;4371824;32;20207;-62
2022/07/14 04:10:28;;;;;;;0.27;0.27;;;;;;;21.00;61.11;95767.12;4364630;32;20219;-62
2022/07/14 04:12:56;;;;;;;0.33;0.33;;;;;;;21.02;60.00;95769.50;4344133;32;20189;-62
2022/07/14 04:15:23;;;;;;;0.40;0.40;;;;;;;21.04;60.87;95762.63;4367894;32;20196;-62
2022/07/14 04:17:51;;;;;;;0.10;0.10;;;;;;;21.07;61.62;95767.31;4347303;32;20297;-62
2022/07/14 04:20:18;;;;;;;0.37;0.37;;;;;;;21.07;61.65;95778.13;4342922;32;20284;-62
2022/07/14 04:22:45;;;;;;;1.50;0.60;;;;;;;21.06;60.99;95791.94;4355196;32;20303;-63
2022/07/14 04:25:12;;;;;;;0.37;0.37;;;;;;;21.09;61.82;95777.75;4342843;32;20195;-62
2022/07/14 04:27:39;;;;;;;1.17;0.60;;;;;;;21.11;61.61;95787.09;4350768;32;20227;-65
2022/07/14 04:30:10;;;;;;;0.10;0.10;;;;;;;21.14;62.04;95778.28;4358512;32;20185;-62
2022/07/14 04:32:36;;;;;;;0.13;0.13;;;;;;;21.15;61.80;95792.56;4332962;32;20189;-63
2022/07/14 04:35:07;;;;;;;0.30;0.30;;;;;;;21.12;62.18;95791.34;4347291;32;20192;-62
2022/07/14 04:37:35;;;;;;;0.60;0.60;;;;;;;21.09;61.19;95793.97;4357390;32;20229;-64
2022/07/14 04:40:03;;;;;;;0.20;0.20;;;;;;;21.13;62.30;95784.81;4365134;32;20168;-62
2022/07/14 04:42:29;;;;;;;0.30;0.20;;;;;;;21.14;63.17;95786.37;4357334;32;20264;-62
2022/07/14 04:44:57;;;;;;;4.93;1.17;;;;;;;21.10;62.56;95785.50;4355427;32;20188;-62
2022/07/14 04:47:26;;;;;;;0.57;0.57;;;;;;;21.13;62.57;95787.53;4359482;32;20306;-62
2022/07/14 04:52:49;;;;;;;0.23;0.23;;;;;;;21.27;62.54;95790.56;4320422;32;20210;-62
2022/07/14 04:55:16;;;;;;;0.27;0.27;;;;;;;21.29;61.56;95787.53;4374213;32;20196;-62
2022/07/14 04:57:43;;;;;;;0.60;0.60;;;;;;;21.31;62.09;95785.25;4351113;32;20188;-62
2022/07/14 05:00:11;;;;;;;0.73;0.70;;;;;;;21.33;61.65;95782.22;4362646;32;20240;-62
2022/07/14 05:02:39;;;;;;;0.23;0.23;;;;;;;21.26;62.71;95783.59;4355330;32;20204;-62
2022/07/14 05:05:09;;;;;;;0.40;0.40;;;;;;;21.28;61.55;95788.66;4357128;32;20185;-62
2022/07/14 05:07:35;;;;;;;0.50;0.50;;;;;;;21.24;61.67;95790.50;4359661;32;20196;-62
2022/07/14 05:10:08;;;;;;;0.43;0.43;;;;;;;21.27;60.66;95795.97;4371083;32;20206;-62
2022/07/14 05:12:34;;;;;;;0.20;0.20;;;;;;;21.27;61.42;95797.88;4372141;32;20193;-62
2022/07/14 05:15:02;;;;;;;0.27;0.27;;;;;;;21.31;62.24;95789.88;4370298;32;20264;-63
2022/07/14 05:17:29;;;;;;;1.10;0.60;;;;;;;21.33;61.72;95785.69;4355984;32;20196;-62
2022/07/14 05:19:54;;;;;;;0.20;0.20;;;;;;;21.37;60.66;95789.28;4339190;32;20280;-62
2022/07/14 05:22:20;;;;;;;3.10;0.80;;;;;;;21.33;61.90;95798.41;4373735;32;20220;-62
2022/07/14 05:24:46;;;;;;;0.33;0.17;;;;;;;21.27;62.19;95801.37;4369286;32;20180;-62
2022/07/14 05:27:12;;;;;;;0.73;0.50;;;;;;;21.26;61.79;95796.31;4356677;32;20192;-62
2022/07/14 05:29:38;;;;;;;1.00;0.30;;;;;;;21.25;63.17;95798.25;4362077;32;20184;-63
2022/07/14 05:32:08;;;;;;;1.40;0.50;;;;;;;21.21;63.33;95801.97;4363302;32;20222;-62
2022/07/14 05:34:45;;;;;;;0.63;0.63;;;;;;;21.21;64.04;95802.75;4374560;32;20185;-62
2022/07/14 05:37:14;;;;;;;0.43;0.43;;;;;;;21.20;62.26;95803.09;4338277;32;20184;-63
2022/07/14 05:39:39;;;;;;;0.30;0.30;;;;;;;21.10;62.24;95812.50;4307869;32;20185;-62
2022/07/14 05:42:06;;;;;;;0.23;0.23;;;;;;;21.14;61.49;95813.38;4361380;32;20192;-62
2022/07/14 05:44:34;;;;;;;1.53;0.27;;;;;;;21.17;61.67;95811.91;4365440;32;20199;-62
2022/07/14 05:47:02;;;;;;;0.47;0.47;;;;;;;21.23;63.06;95805.91;4350311;32;20220;-62
2022/07/14 05:49:28;;;;;;;0.57;0.57;;;;;;;21.27;61.75;95806.78;4352707;32;20341;-62
2022/07/14 05:51:55;;;;;;;0.30;0.30;;;;;;;21.32;60.72;95802.25;4369033;32;20259;-62
2022/07/14 05:54:20;;;;;;;0.13;0.13;;;;;;;21.38;60.34;95801.63;4368413;32;20181;-62
2022/07/14 05:56:47;;;;;;;0.63;0.63;;;;;;;21.46;59.62;95794.47;4369305;32;20192;-62
2022/07/14 05:59:14;;;;;;;0.57;0.57;;;;;;;21.57;59.23;95792.81;4368317;32;20189;-62
2022/07/14 06:01:39;;;;;;;0.23;0.23;;;;;;;21.67;58.96;95783.34;4385959;32;20192;-62
2022/07/14 06:04:05;;;;;;;0.20;0.20;;;;;;;21.69;58.78;95783.78;4377360;32;20300;-62
2022/07/14 06:06:35;;;;;;;0.37;0.37;;;;;;;21.74;57.85;95783.53;4357129;32;20185;-62
2022/07/14 06:09:03;;;;;;;0.20;0.20;;;;;;;21.78;58.51;95787.09;4338743;32;20177;-62
2022/07/14 06:11:30;;;;;;;3.63;0.50;;;;;;;21.86;57.09;95778.78;4350750;32;20181;-62
2022/07/14 06:14:01;;;;;;;0.10;0.10;;;;;;;21.91;57.09;95778.50;4373699;32;20260;-62
2022/07/14 06:16:29;;;;;;;0.70;0.70;;;;;;;21.98;58.02;95782.50;4363663;32;20271;-62
2022/07/14 06:18:56;;;;;;;0.37;0.37;;;;;;;21.91;56.96;95786.59;4353538;32;20264;-62
2022/07/14 06:21:23;;;;;;;0.50;0.50;;;;;;;21.93;57.50;95783.53;4364178;32;20199;-62
2022/07/14 06:23:49;;;;;;;0.50;0.50;;;;;;;21.87;57.00;95785.75;4357777;32;20189;-62
2022/07/14 06:26:14;;;;;;;0.20;0.20;;;;;;;22.02;56.34;95780.69;4341278;32;20191;-62
2022/07/14 06:28:41;;;;;;;0.53;0.50;;;;;;;22.05;56.14;95785.34;4352570;32;20238;-63
2022/07/14 06:31:09;;;;;;;3.40;3.20;;;;;;;22.16;55.44;95776.34;4353017;32;20429;-62
2022/07/14 06:33:37;;;;;;;2.00;1.80;;;;;;;22.26;55.01;95777.66;4335493;32;20203;-62
2022/07/14 06:36:08;;;;;;;1.37;1.37;;;;;;;22.36;54.48;95774.41;4349329;32;20192;-63
2022/07/14 06:38:40;;;;;;;0.57;0.53;;;;;;;22.43;54.43;95771.06;4347833;32;20252;-62
2022/07/14 06:41:06;;;;;;;0.40;0.40;;;;;;;22.59;53.94;95769.81;4321101;32;20266;-62
2022/07/14 06:43:31;;;;;;;0.30;0.30;;;;;;;22.73;52.26;95765.78;4325501;32;20197;-62
2022/07/14 06:45:58;;;;;;;13.47;0.73;;;;;;;22.87;51.88;95761.41;4375293;32;20255;-63
2022/07/14 06:48:23;;;;;;;0.23;0.23;;;;;;;23.02;50.91;95764.38;4342994;32;20207;-62
2022/07/14 06:50:51;;;;;;;5.80;5.30;;;;;;;23.18;51.16;95760.38;4331823;32;20228;-62
2022/07/14 06:53:20;;;;;;;2.63;2.50;;;;;;;23.37;49.78;95756.03;4360970;32;20200;-62
2022/07/14 06:55:47;;;;;;;3.23;2.93;;;;;;;23.41;50.45;95757.66;4372946;32;20204;-62
2022/07/14 06:58:15;;;;;;;1.53;1.00;;;;;;;23.34;52.54;95752.12;4344270;32;20234;-62
2022/07/14 07:00:42;;;;;;;8.83;1.73;;;;;;;23.35;50.65;95753.69;4384653;32;20184;-62
2022/07/14 07:03:12;;;;;;;21.50;14.97;;;;;;;23.37;51.25;95753.31;4366186;32;20209;-63
2022/07/14 07:08:25;;;;;;;30.07;23.70;;;;;;;23.39;50.22;95749.09;4373584;32;20242;-62
2022/07/14 07:10:54;;;;;;;8.13;7.40;;;;;;;23.56;49.64;95742.41;4359851;32;20185;-60
2022/07/14 07:13:21;;;;;;;15.10;12.17;;;;;;;23.65;50.04;95745.63;4313784;32;20248;-61
2022/07/14 07:15:48;;;;;;;10.10;9.20;;;;;;;23.82;49.42;95739.66;4351162;32;20184;-61
2022/07/14 07:18:16;;;;;;;17.23;12.87;;;;;;;23.96;48.79;95734.41;4352484;32;20185;-61
2022/07/14 07:20:44;;;;;;;3.97;3.07;;;;;;;23.96;48.59;95733.63;4317634;32;20189;-63
2022/07/14 07:23:10;;;;;;;36.97;20.50;;;;;;;24.07;47.94;95739.19;4359277;32;20208;-60
2022/07/14 07:25:35;;;;;;;4.13;3.73;;;;;;;24.18;48.00;95737.38;4333620;32;20185;-59
2022/07/14 07:28:07;;;;;;;50.30;21.10;;;;;;;24.25;47.32;95734.78;4373008;32;20211;-60
2022/07/14 07:30:34;;;;;;;8.83;6.57;;;;;;;24.36;46.90;95735.66;4370158;32;20189;-60
2022/07/14 07:33:00;;;;;;;4.07;3.67;;;;;;;24.49;47.33;95734.25;4344071;32;20355;-59
2022/07/14 07:35:26;;;;;;;2.10;2.00;;;;;;;24.51;49.05;95742.03;4326189;32;20218;-60
2022/07/14 07:37:53;;;;;;;0.57;0.57;;;;;;;24.54;48.73;95738.53;4312727;32;20193;-42
2022/07/14 07:40:20;;;;;;;1.60;1.03;;;;;;;24.55;48.79;95735.47;4370441;32;20203;-44
2022/07/14 07:42:51;;;;;;;0.40;0.40;;;;;;;24.59;48.54;95735.50;4337730;32;20238;-45
2022/07/14 07:45:20;;;;;;;1.13;1.13;;;;;;;24.60;48.76;95729.72;4357379;32;20210;-42
2022/07/14 07:47:51;;;;;;;1.17;1.10;;;;;;;24.58;48.78;95723.09;4362204;32;20189;-45
2022/07/14 07:50:18;;;;;;;0.20;0.20;;;;;;;24.54;47.03;95720.34;4363377;32;20230;-43
2022/07/14 07:52:43;;;;;;;0.40;0.40;;;;;;;24.63;46.28;95718.09;4346122;32;20193;-43
2022/07/14 07:55:10;;;;;;;0.33;0.33;;;;;;;24.60;46.47;95718.84;4338364;32;20184;-42
2022/07/14 07:58:00;;;;;;;0.30;0.30;;;;;;;24.66;47.06;95716.59;4369806;32;20193;-42
2022/07/14 08:00:25;;;;;;;0.10;0.10;;;;;;;24.71;46.34;95707.31;4339456;32;20204;-43
2022/07/14 08:02:53;;;;;;;0.13;0.13;;;;;;;24.75;45.90;95702.69;4348977;32;20182;-44
2022/07/14 08:05:22;;;;;;;0.20;0.20;;;;;;;24.83;45.99;95709.75;4355325;32;20244;-44
2022/07/14 08:07:52;;;;;;;0.40;0.40;;;;;;;24.91;46.12;95703.22;4321981;32;20247;-42
2022/07/14 08:10:19;;;;;;;0.33;0.33;;;;;;;24.96;46.07;95695.53;4353426;32;20249;-44
2022/07/14 08:12:45;;;;;;;0.47;0.33;;;;;;;25.08;45.69;95699.91;4329878;32;20188;-44
2022/07/14 08:15:10;;;;;;;0.30;0.30;;;;;;;25.14;46.85;95700.34;4360751;32;20223;-43
2022/07/14 08:17:36;;;;;;;0.50;0.50;;;;;;;25.22;46.26;95699.19;4356001;32;20201;-43
2022/07/14 08:20:16;;;;;;;0.40;0.40;;;;;;;25.33;46.51;95689.97;4360966;32;20189;-47
2022/07/14 08:22:43;;;;;;;0.63;0.63;;;;;;;25.36;46.73;95695.81;4338121;32;20232;-42
2022/07/14 08:25:16;;;;;;;0.23;0.23;;;;;;;25.40;46.84;95681.06;4347376;32;20211;-45
2022/07/14 08:27:42;;;;;;;0.30;0.30;;;;;;;25.36;45.84;95688.41;4365171;32;20203;-44
2022/07/14 08:30:10;;;;;;;0.97;0.93;;;;;;;25.43;44.99;95666.72;4358934;32;20248;-42
2022/07/14 08:32:51;;;;;;;0.30;0.30;;;;;;;25.40;44.53;95677.56;4371599;32;20196;-43
2022/07/14 08:35:19;;;;;;;0.30;0.30;;;;;;;25.58;44.13;95667.56;4372856;32;20184;-42
2022/07/14 08:37:46;;;;;;;1.10;1.10;;;;;;;25.68;43.88;95666.88;4370912;32;20200;-43
2022/07/14 08:40:15;;;;;;;0.20;0.20;;;;;;;25.96;42.59;95658.84;4374562;32;20219;-42
2022/07/14 08:42:47;;;;;;;0.10;0.10;;;;;;;25.87;43.47;95658.41;4343664;32;20200;-44
2022/07/14 08:45:25;;;;;;;0.33;0.33;;;;;;;25.89;42.46;95655.31;4329180;32;20321;-42
2022/07/14 08:47:52;;;;;;;0.53;0.30;;;;;;;25.82;42.53;95650.63;4352332;32;20275;-43
2022/07/14 08:50:20;;;;;;;6.13;0.40;;;;;;;25.97;40.15;95654.97;4353377;32;20215;-42
2022/07/14 08:52:48;;;;;;;0.50;0.50;;;;;;;26.01;37.50;95646.78;4352997;32;20192;-43
2022/07/14 08:55:19;;;;;;;2.63;0.53;;;;;;;26.23;36.81;95650.34;4333015;32;20208;-42
2022/07/14 08:57:45;;;;;;;0.10;0.10;;;;;;;26.30;37.72;95651.16;4357750;32;20282;-43
2022/07/14 09:00:19;;;;;;;0.10;0.10;;;;;;;26.24;38.57;95657.34;4365358;32;20216;-42
2022/07/14 09:02:55;;;;;;;1.90;1.17;;;;;;;26.30;37.35;95653.12;4355122;32;20249;-43
2022/07/14 09:05:22;;;;;;;0.33;0.33;;;;;;;26.20;38.08;95645.66;4337377;32;20198;-43
2022/07/14 09:07:56;;;;;;;0.30;0.30;;;;;;;26.32;36.74;95651.56;4360014;32;20208;-42
2022/07/14 09:10:25;;;;;;;0.40;0.40;;;;;;;26.38;37.35;95653.91;4373160;32;20224;-42
2022/07/14 09:13:31;;;;;;;0.17;0.07;;;;;;;26.43;36.28;95651.56;4353491;32;20276;-44
2022/07/14 09:16:32;;;;;;;0.20;0.20;;;;;;;26.53;35.90;95647.31;4354722;32;20199;-43
2022/07/14 09:19:10;;;;;;;0.53;0.53;;;;;;;26.60;35.84;95645.34;4369589;32;20184;-44
2022/07/14 09:21:39;;;;;;;1.00;1.00;;;;;;;26.88;34.88;95639.13;4353595;32;20180;-45
2022/07/14 09:24:09;;;;;;;22.87;0.77;;;;;;;27.02;34.89;95636.41;4331599;32;20181;-44
2022/07/14 09:26:51;;;;;;;0.60;0.60;;;;;;;27.03;34.74;95629.00;4338800;32;20185;-46
2022/07/14 09:29:20;;;;;;;0.17;0.17;;;;;;;27.22;33.96;95631.34;4349798;32;20202;-44
2022/07/14 09:31:48;;;;;;;0.43;0.43;;;;;;;27.27;34.47;95630.91;4330308;32;20271;-42
2022/07/14 09:34:34;;;;;;;1.37;0.83;;;;;;;27.02;35.08;95622.00;4353656;32;20186;-47
2022/07/14 09:37:16;;;;;;;9.13;0.97;;;;;;;27.17;34.79;95620.06;4328181;32;20313;-47
2022/07/14 09:39:58;;;;;;;0.40;0.40;;;;;;;27.22;35.08;95619.66;4361633;32;20185;-46
2022/07/14 09:42:58;;;;;;;0.10;0.10;;;;;;;27.53;33.50;95618.00;4350570;32;20200;-46
2022/07/14 09:45:36;;;;;;;0.37;0.37;;;;;;;27.44;34.72;95620.34;4316170;32;20261;-45
2022/07/14 09:48:19;;;;;;;0.20;0.20;;;;;;;27.44;34.88;95615.69;4362567;32;20427;-46
2022/07/14 09:50:57;;;;;;;0.40;0.40;;;;;;;27.50;35.26;95599.69;4361217;32;20184;-48
2022/07/14 09:53:45;;;;;;;0.13;0.13;;;;;;;27.83;33.48;95604.66;4355040;32;20239;-45
2022/07/14 09:56:11;;;;;;;0.30;0.30;;;;;;;27.74;33.16;95601.56;4342607;32;20185;-48
2022/07/14 09:58:51;;;;;;;0.10;0.10;;;;;;;27.94;31.64;95594.44;4366097;32;20168;-45
2022/07/14 10:01:20;;;;;;;1.80;0.20;;;;;;;27.97;31.96;95582.75;4372111;32;20228;-46
2022/07/14 10:03:51;;;;;;;0.50;0.50;;;;;;;28.04;32.39;95588.16;4369043;32;20185;-44
2022/07/14 10:06:29;;;;;;;0.20;0.20;;;;;;;27.87;33.82;95588.25;4366058;32;20184;-43
2022/07/14 10:09:00;;;;;;;4.90;4.63;;;;;;;27.82;33.18;95575.03;4366791;32;20244;-43
2022/07/14 10:11:29;;;;;;;1.40;1.40;;;;;;;27.93;33.22;95568.34;4349467;32;20220;-44
2022/07/14 10:13:57;;;;;;;3.17;2.97;;;;;;;27.82;33.92;95578.56;4343737;32;20193;-42
2022/07/14 10:16:31;;;;;;;5.60;2.10;;;;;;;28.04;33.27;95571.78;4357584;32;20172;-43
2022/07/14 10:18:59;;;;;;;1.60;1.17;;;;;;;28.05;33.34;95565.16;4383685;32;20279;-44
2022/07/14 10:21:37;;;;;;;0.80;0.80;;;;;;;28.13;32.98;95563.13;4336235;32;20181;-42
2022/07/14 10:24:07;;;;;;;0.37;0.37;;;;;;;28.03;33.60;95558.56;4376165;32;20238;-42
2022/07/14 10:26:35;;;;;;;0.93;0.93;;;;;;;28.01;34.38;95560.91;4359139;32;20199;-42
2022/07/14 10:29:06;;;;;;;4.27;1.83;;;;;;;28.12;32.63;95560.81;4337125;32;20254;-42
2022/07/14 10:31:58;;;;;;;2.13;1.97;;;;;;;28.00;33.26;95553.88;4320939;32;20203;-44
2022/07/14 10:35:01;;;;;;;2.43;2.33;;;;;;;28.03;32.11;95553.88;4363184;32;20188;-43
2022/07/14 10:37:38;;;;;;;7.63;1.77;;;;;;;27.97;32.99;95555.47;4350864;32;20286;-42
2022/07/14 10:40:32;;;;;;;0.73;0.73;;;;;;;28.10;32.28;95546.78;4364291;32;20172;-43
2022/07/14 10:43:10;;;;;;;3.13;0.80;;;;;;;28.27;31.35;95540.44;4340808;32;20173;-45
2022/07/14 10:45:57;;;;;;;0.97;0.70;;;;;;;28.23;31.67;95550.63;4360427;32;20189;-43
2022/07/14 10:48:48;;;;;;;0.70;0.70;;;;;;;28.08;32.16;95543.69;4365589;32;20185;-43
2022/07/14 10:51:19;;;;;;;0.10;0.10;;;;;;;28.13;32.72;95535.06;4336595;32;20251;-43
2022/07/14 10:54:21;;;;;;;0.70;0.70;;;;;;;27.97;33.12;95525.44;4356231;32;20189;-45
2022/07/14 10:56:49;;;;;;;0.30;0.30;;;;;;;28.05;33.16;95526.19;4317475;32;20275;-43
2022/07/14 10:59:31;;;;;;;1.03;1.03;;;;;;;28.16;32.50;95531.53;4367135;32;20253;-43
2022/07/14 11:02:24;;;;;;;1.50;1.40;;;;;;;27.84;33.11;95534.50;4364504;32;20203;-44
2022/07/14 11:05:12;;;;;;;0.80;0.77;;;;;;;27.77;33.20;95523.62;4370402;32;20285;-44
2022/07/14 11:08:07;;;;;;;0.93;0.40;;;;;;;27.58;34.30;95527.66;4359516;32;20240;-43
2022/07/14 11:10:44;;;;;;;2.30;2.17;;;;;;;27.44;35.04;95523.00;4351963;32;20199;-42
2022/07/14 11:13:16;;;;;;;4.93;4.23;;;;;;;27.42;35.25;95524.59;4307767;32;20195;-55
2022/07/14 11:15:50;;;;;;;4.47;4.07;;;;;;;27.35;35.00;95519.94;4359263;32;20230;-54
2022/07/14 11:18:37;;;;;;;1.23;1.23;;;;;;;27.27;35.61;95519.19;4349830;32;20188;-42
2022/07/14 11:21:19;;;;;;;10.30;1.57;;;;;;;27.22;35.80;95522.34;4369847;32;20188;-41
2022/07/14 11:23:50;;;;;;;0.77;0.67;;;;;;;27.14;35.96;95518.09;4334973;32;20192;-44
2022/07/14 11:26:47;;;;;;;1.07;1.07;;;;;;;27.25;35.18;95504.41;4360151;32;20189;-42
2022/07/14 11:29:13;;;;;;;3.20;1.50;;;;;;;27.32;35.32;95502.44;4342936;32;20202;-52
2022/07/14 11:31:52;;;;;;;0.53;0.53;;;;;;;27.17;36.01;95498.22;4351392;32;20185;-49
2022/07/14 11:37:19;;;;;;;0.97;0.97;;;;;;;27.16;35.86;95496.66;4363054;32;20207;-50
2022/07/14 11:39:47;;;;;;;0.90;0.90;;;;;;;26.86;38.07;95488.19;4342147;32;20227;-51
2022/07/14 11:42:16;;;;;;;3.27;3.00;;;;;;;26.69;38.33;95490.56;4370057;32;20222;-48
2022/07/14 11:44:46;;;;;;;2.57;2.17;;;;;;;27.09;35.93;95487.75;4365213;32;20211;-50
2022/07/14 11:47:29;;;;;;;4.07;3.77;;;;;;;26.99;37.14;95473.00;4358747;32;20177;-47
2022/07/14 11:50:00;;;;;;;16.13;1.77;;;;;;;27.15;36.36;95476.03;4361019;32;20199;-48
2022/07/14 11:52:32;;;;;;;1.03;0.30;;;;;;;27.14;36.27;95477.22;4355283;32;20188;-47
2022/07/14 11:55:01;;;;;;;2.23;2.03;;;;;;;27.40;34.86;95473.19;4360993;32;20246;-52
2022/07/14 11:57:27;;;;;;;1.70;1.23;;;;;;;27.60;35.23;95468.03;4328339;32;20223;-47
2022/07/14 12:00:00;;;;;;;0.83;0.83;;;;;;;27.21;38.00;95463.56;4346624;32;20186;-50
2022/07/14 12:02:29;;;;;;;4.50;3.63;;;;;;;27.22;36.63;95467.06;4348483;32;20193;-50